Time;durP1;ratioP1;P1;durP2;ratioP2;P2;SDS_P1;SDS_P2;PMS_P1;PMS_P2;Temp;Humidity;BMP_temperature;BMP_pressure;BME280_temperature;BME280_humidity;BME280_pressure;Samples;Min_cycle;Max_cycle;Signal;HPM_P1;HPM_P2
2022/09/25 03:03:07;;;;;;;12.68;6.22;;;;;;;13.52;48.82;100621.47;5439661;23;20039;-65
2022/09/25 03:05:35;;;;;;;7.75;5.53;;;;;;;13.53;48.92;100619.66;4970829;28;20057;-70
2022/09/25 03:10:47;;;;;;;9.45;6.30;;;;;;;13.28;49.71;100610.91;4973081;28;20050;-73
2022/09/25 03:13:21;;;;;;;9.27;6.75;;;;;;;13.45;49.34;100622.41;4956340;28;20042;-72
2022/09/25 03:16:05;;;;;;;13.98;6.40;;;;;;;13.40;49.48;100614.03;4972823;28;20488;-73
2022/09/25 03:18:33;;;;;;;13.18;6.55;;;;;;;13.34;49.69;100605.63;4973049;28;20051;-73
2022/09/25 03:20:59;;;;;;;11.45;6.35;;;;;;;13.28;49.98;100608.22;4956486;28;20411;-73
2022/09/25 03:23:26;;;;;;;11.68;6.53;;;;;;;13.42;49.66;100606.59;4953548;28;20483;-73
2022/09/25 03:25:53;;;;;;;9.07;6.10;;;;;;;13.50;49.53;100609.22;4953301;28;20537;-73
2022/09/25 03:28:21;;;;;;;14.13;6.13;;;;;;;13.57;49.41;100612.88;4953999;28;20113;-71
2022/09/25 03:31:05;;;;;;;17.15;6.45;;;;;;;13.50;49.74;100611.94;4953563;28;20051;-72
2022/09/25 03:33:37;;;;;;;9.57;6.72;;;;;;;13.50;49.74;100606.53;4951933;29;20043;-71
2022/09/25 03:36:10;;;;;;;10.30;6.95;;;;;;;13.59;49.47;100610.81;4952587;28;20055;-67
2022/09/25 03:38:40;;;;;;;10.45;6.10;;;;;;;13.57;49.58;100605.63;4970878;28;20049;-68
2022/09/25 03:41:08;;;;;;;13.05;6.70;;;;;;;13.63;49.46;100606.75;4971070;28;20062;-67
2022/09/25 03:43:36;;;;;;;8.23;6.20;;;;;;;13.66;49.61;100602.84;4970673;28;20053;-68
2022/09/25 03:46:04;;;;;;;10.38;6.93;;;;;;;13.69;49.74;100603.31;4971095;28;20047;-68
2022/09/25 03:48:31;;;;;;;15.48;7.30;;;;;;;13.74;49.68;100605.47;4970457;28;20050;-68
2022/09/25 03:50:59;;;;;;;8.50;6.25;;;;;;;13.76;49.46;100608.84;4970791;28;20062;-68
2022/09/25 03:53:30;;;;;;;13.70;7.05;;;;;;;13.72;49.68;100597.53;4970146;28;20405;-67
2022/09/25 03:55:56;;;;;;;13.10;7.30;;;;;;;13.74;49.59;100595.53;4970837;28;20050;-69
2022/09/25 03:58:23;;;;;;;8.43;6.18;;;;;;;13.70;49.65;100596.03;4971039;28;20053;-67
2022/09/25 04:00:49;;;;;;;14.07;6.72;;;;;;;13.48;50.22;100597.78;4971203;28;20487;-68
2022/09/25 04:03:16;;;;;;;11.77;7.07;;;;;;;13.54;50.12;100597.06;4971113;28;20054;-68
2022/09/25 04:05:43;;;;;;;10.30;7.00;;;;;;;13.59;50.08;100598.19;4970762;28;20043;-69
2022/09/25 04:08:09;;;;;;;12.48;7.03;;;;;;;13.65;50.04;100595.78;4970665;28;20047;-68
2022/09/25 04:10:37;;;;;;;17.13;7.20;;;;;;;13.67;49.92;100591.06;4966198;28;20509;-68
2022/09/25 04:13:05;;;;;;;13.38;7.30;;;;;;;13.69;50.28;100589.00;4951350;29;20051;-68
2022/09/25 04:15:32;;;;;;;10.35;7.30;;;;;;;13.56;50.38;100592.31;4951607;28;20062;-67
2022/09/25 04:17:59;;;;;;;13.18;7.68;;;;;;;13.42;50.56;100590.41;4953043;28;20051;-68
2022/09/25 04:20:32;;;;;;;17.05;7.82;;;;;;;13.52;50.44;100589.13;4954996;28;20071;-67
2022/09/25 04:22:58;;;;;;;10.90;7.32;;;;;;;13.48;50.70;100592.41;4955055;28;20456;-67
2022/09/25 04:25:24;;;;;;;9.68;7.30;;;;;;;13.55;50.39;100583.38;4954841;28;20492;-67
2022/09/25 04:27:54;;;;;;;12.57;7.65;;;;;;;13.46;50.65;100589.06;4954124;28;20058;-69
2022/09/25 04:30:21;;;;;;;10.57;6.07;;;;;;;13.31;51.11;100587.13;4954900;28;20054;-67
2022/09/25 04:35:33;;;;;;;9.73;7.07;;;;;;;13.07;51.48;100592.72;4954451;29;20046;-69
2022/09/25 04:38:00;;;;;;;11.38;6.90;;;;;;;13.11;51.68;100589.50;4955118;28;20065;-70
2022/09/25 04:40:27;;;;;;;11.05;6.95;;;;;;;13.21;51.27;100589.25;4954573;28;20043;-68
2022/09/25 04:42:56;;;;;;;11.63;7.32;;;;;;;13.29;51.25;100593.75;4954634;28;20078;-68
2022/09/25 04:45:22;;;;;;;15.57;7.43;;;;;;;13.08;51.58;100589.88;4954446;28;20514;-67
2022/09/25 04:47:49;;;;;;;12.98;7.93;;;;;;;13.30;51.15;100588.16;4954775;28;20051;-68
2022/09/25 04:50:15;;;;;;;20.42;8.65;;;;;;;13.32;51.09;100585.31;4955993;28;20043;-62
2022/09/25 04:52:42;;;;;;;16.98;7.95;;;;;;;13.31;51.08;100591.69;4955171;28;20419;-62
2022/09/25 04:55:08;;;;;;;12.23;7.75;;;;;;;13.27;51.20;100590.38;4955811;28;20054;-61
2022/09/25 04:57:34;;;;;;;15.10;7.10;;;;;;;13.43;50.85;100597.50;4956153;28;20047;-62
2022/09/25 05:00:23;;;;;;;25.85;14.82;;;;;;;13.40;51.19;100592.47;4955326;28;20051;-63
2022/09/25 05:02:49;;;;;;;24.75;13.63;;;;;;;13.51;50.68;100595.56;4955312;28;20050;-62
2022/09/25 05:05:16;;;;;;;17.08;8.35;;;;;;;13.57;50.52;100588.63;4956472;28;20059;-62
2022/09/25 05:07:55;;;;;;;11.00;7.63;;;;;;;13.52;50.75;100591.84;4955169;28;20063;-63
2022/09/25 05:10:24;;;;;;;14.38;7.40;;;;;;;13.51;50.73;100594.72;4948441;28;20039;-61
2022/09/25 05:12:55;;;;;;;14.27;8.15;;;;;;;13.54;50.45;100591.66;4974689;28;20042;-64
2022/09/25 05:15:22;;;;;;;13.25;7.60;;;;;;;13.49;50.41;100596.75;4957596;28;20054;-61
2022/09/25 05:17:48;;;;;;;15.23;7.57;;;;;;;13.48;50.50;100592.41;4974907;28;20043;-61
2022/09/25 05:20:16;;;;;;;11.55;7.45;;;;;;;13.46;50.30;100597.16;4975210;28;20495;-62
2022/09/25 05:22:43;;;;;;;12.63;7.72;;;;;;;13.28;50.88;100590.22;4975214;28;20043;-63
2022/09/25 05:25:09;;;;;;;13.32;8.38;;;;;;;13.39;50.92;100596.16;4974618;28;20054;-63
2022/09/25 05:27:36;;;;;;;12.48;8.05;;;;;;;13.50;50.39;100598.44;4974936;28;20054;-61
2022/09/25 05:30:02;;;;;;;15.00;8.82;;;;;;;13.43;50.64;100595.66;4973203;28;20050;-62
2022/09/25 05:32:29;;;;;;;17.85;8.13;;;;;;;13.54;50.24;100602.44;4974411;28;20047;-63
2022/09/25 05:34:56;;;;;;;12.90;7.20;;;;;;;13.61;50.10;100602.56;4974603;28;20051;-61
2022/09/25 05:37:23;;;;;;;12.95;7.32;;;;;;;13.54;50.25;100615.94;4965785;28;20050;-61
2022/09/25 05:39:49;;;;;;;15.77;7.90;;;;;;;13.53;50.41;100614.25;4974111;28;20502;-61
2022/09/25 05:42:18;;;;;;;12.63;7.82;;;;;;;13.66;50.19;100622.53;4974868;28;20046;-61
2022/09/25 05:44:44;;;;;;;12.80;7.72;;;;;;;13.65;50.03;100618.19;4973551;28;20517;-61
2022/09/25 05:47:11;;;;;;;11.13;8.05;;;;;;;13.73;49.93;100604.59;4974960;28;20070;-61
2022/09/25 05:49:37;;;;;;;10.77;7.20;;;;;;;13.82;49.70;100608.94;4974167;28;20042;-62
2022/09/25 05:52:04;;;;;;;14.00;7.75;;;;;;;13.90;49.62;100601.78;4974545;28;20057;-61
2022/09/25 05:54:30;;;;;;;13.00;8.32;;;;;;;13.95;49.42;100604.78;4957230;28;20537;-62
2022/09/25 05:56:57;;;;;;;15.77;8.55;;;;;;;13.73;49.86;100601.91;4973767;28;20047;-62
2022/09/25 05:59:24;;;;;;;23.17;13.82;;;;;;;13.88;49.45;100603.84;4974441;28;20047;-62
2022/09/25 06:01:50;;;;;;;19.77;10.32;;;;;;;14.06;49.02;100612.41;4974577;28;20430;-62
2022/09/25 06:04:17;;;;;;;15.75;9.73;;;;;;;13.90;49.34;100609.88;4973350;28;20110;-62
2022/09/25 06:06:43;;;;;;;16.85;9.68;;;;;;;14.12;48.82;100613.53;4974168;28;20050;-63
2022/09/25 06:09:09;;;;;;;23.50;11.77;;;;;;;13.61;49.81;100611.47;4974237;28;20050;-61
2022/09/25 06:11:36;;;;;;;19.65;11.98;;;;;;;14.09;48.85;100608.50;4962511;28;20047;-63
2022/09/25 06:14:02;;;;;;;15.70;9.02;;;;;;;14.18;48.58;100613.59;4954419;28;20051;-62
2022/09/25 06:16:29;;;;;;;20.08;8.48;;;;;;;14.37;48.56;100612.19;4953956;28;20051;-64
2022/09/25 06:18:56;;;;;;;13.00;8.00;;;;;;;14.08;49.08;100607.66;4954384;28;20400;-63
2022/09/25 06:21:23;;;;;;;19.38;11.18;;;;;;;13.77;49.43;100603.28;4955670;29;20043;-61
2022/09/25 06:23:49;;;;;;;13.77;8.93;;;;;;;13.71;49.68;100605.84;4953672;29;20054;-61
2022/09/25 06:26:16;;;;;;;12.63;8.25;;;;;;;13.40;50.71;100611.34;4954378;28;20055;-62
2022/09/25 06:28:42;;;;;;;16.55;8.93;;;;;;;13.83;49.60;100599.81;4954004;28;20043;-61
2022/09/25 06:31:09;;;;;;;17.38;8.77;;;;;;;13.89;49.40;100606.34;4954837;28;20047;-61
2022/09/25 06:33:35;;;;;;;12.32;8.77;;;;;;;14.16;48.84;100610.25;4953619;28;20130;-62
2022/09/25 06:36:04;;;;;;;12.32;8.88;;;;;;;14.49;48.10;100610.69;4954272;29;20055;-63
2022/09/25 06:38:33;;;;;;;15.57;8.45;;;;;;;14.58;47.78;100616.81;4945070;28;20051;-63
2022/09/25 06:41:00;;;;;;;12.02;8.48;;;;;;;14.66;47.51;100616.69;4954680;28;20047;-62
2022/09/25 06:43:27;;;;;;;13.25;8.45;;;;;;;14.34;48.20;100619.84;4954900;28;20057;-64
2022/09/25 06:45:57;;;;;;;16.75;8.70;;;;;;;14.53;47.57;100613.84;4955004;28;20055;-61
2022/09/25 06:48:24;;;;;;;10.95;8.60;;;;;;;14.43;47.97;100616.03;4954587;28;20055;-62
2022/09/25 06:50:52;;;;;;;14.48;8.77;;;;;;;14.50;47.80;100611.53;4955062;28;20050;-62
2022/09/25 06:53:20;;;;;;;14.55;9.35;;;;;;;14.78;47.38;100617.09;4953032;28;20043;-60
2022/09/25 06:55:48;;;;;;;13.65;8.93;;;;;;;14.97;46.86;100616.44;4955042;28;20444;-62
2022/09/25 06:58:18;;;;;;;11.40;7.78;;;;;;;14.90;47.07;100609.31;4944871;29;20122;-63
2022/09/25 07:00:46;;;;;;;14.63;8.55;;;;;;;14.95;47.31;100615.00;4954665;28;20410;-61
2022/09/25 07:06:03;;;;;;;14.25;9.07;;;;;;;15.23;46.80;100612.38;4953365;28;20050;-62
2022/09/25 07:08:29;;;;;;;16.17;9.25;;;;;;;15.01;46.78;100616.91;4954075;28;20055;-61
2022/09/25 07:10:57;;;;;;;17.00;9.40;;;;;;;15.08;46.51;100617.81;4960584;28;20406;-61
2022/09/25 07:13:28;;;;;;;16.00;9.45;;;;;;;15.15;46.32;100621.41;4972921;28;20058;-62
2022/09/25 07:15:57;;;;;;;17.33;9.55;;;;;;;15.22;46.25;100611.53;4972701;28;20046;-63
2022/09/25 07:18:25;;;;;;;15.07;8.73;;;;;;;15.36;46.27;100615.19;4972922;28;20058;-61
2022/09/25 07:20:52;;;;;;;17.15;10.43;;;;;;;15.13;46.98;100612.69;4963837;28;20161;-61
2022/09/25 07:23:21;;;;;;;13.00;8.32;;;;;;;15.02;46.74;100615.91;4973217;28;20046;-61
2022/09/25 07:25:48;;;;;;;14.88;8.65;;;;;;;15.25;46.19;100608.41;4963476;28;20063;-62
2022/09/25 07:28:17;;;;;;;15.55;8.90;;;;;;;15.13;46.78;100599.16;4972374;28;20142;-61
2022/09/25 07:30:45;;;;;;;14.40;9.63;;;;;;;15.29;46.26;100600.75;4970315;28;20114;-61
2022/09/25 07:33:12;;;;;;;14.77;9.43;;;;;;;15.76;45.48;100596.59;4973159;28;20050;-61
2022/09/25 07:35:38;;;;;;;11.93;8.50;;;;;;;16.00;45.12;100597.19;4973809;28;20054;-62
2022/09/25 07:38:05;;;;;;;13.10;9.02;;;;;;;16.00;45.02;100602.59;4972217;28;20057;-62
2022/09/25 07:40:34;;;;;;;15.85;8.85;;;;;;;16.00;44.65;100603.41;4972115;28;20051;-62
2022/09/25 07:43:01;;;;;;;32.38;16.95;;;;;;;15.87;44.89;100608.75;4955716;28;20463;-62
2022/09/25 07:45:31;;;;;;;23.92;13.52;;;;;;;15.67;45.21;100609.44;4973091;28;20051;-62
2022/09/25 07:47:59;;;;;;;17.48;10.68;;;;;;;15.70;45.19;100610.91;4971813;28;20054;-62
2022/09/25 07:50:27;;;;;;;13.18;8.68;;;;;;;16.01;44.58;100610.50;4946365;28;20050;-62
2022/09/25 07:52:53;;;;;;;16.08;8.68;;;;;;;16.08;44.46;100614.06;4973485;28;20050;-62
2022/09/25 07:55:20;;;;;;;15.00;9.38;;;;;;;16.06;44.72;100607.22;4976295;28;20427;-62
2022/09/25 07:57:48;;;;;;;15.52;8.95;;;;;;;16.12;44.33;100609.09;4975410;28;20061;-62
2022/09/25 08:00:15;;;;;;;14.50;8.50;;;;;;;16.15;44.28;100606.81;4976380;28;20051;-62
2022/09/25 08:02:42;;;;;;;16.02;9.07;;;;;;;16.30;44.28;100603.19;4975014;28;20046;-61
2022/09/25 08:05:10;;;;;;;15.23;9.40;;;;;;;16.33;44.21;100600.03;4976456;28;20050;-61
2022/09/25 08:07:37;;;;;;;12.25;8.40;;;;;;;15.99;45.01;100606.34;4976408;28;20042;-62
2022/09/25 08:10:04;;;;;;;16.70;9.40;;;;;;;16.51;43.87;100592.25;4974927;28;20058;-61
2022/09/25 08:12:30;;;;;;;14.68;9.65;;;;;;;16.56;43.76;100597.06;4957311;28;20120;-61
2022/09/25 08:14:56;;;;;;;25.77;15.65;;;;;;;16.34;44.49;100591.72;4956962;28;20413;-61
2022/09/25 08:17:23;;;;;;;26.30;13.82;;;;;;;16.59;43.77;100597.47;4956594;28;20447;-62
2022/09/25 08:19:49;;;;;;;16.65;10.55;;;;;;;16.63;43.60;100593.31;4955958;29;20047;-62
2022/09/25 08:22:16;;;;;;;18.30;9.95;;;;;;;16.54;43.92;100596.41;4956522;28;20058;-63
2022/09/25 08:24:42;;;;;;;18.30;10.05;;;;;;;16.67;43.62;100591.03;4955329;29;20413;-61
2022/09/25 08:27:09;;;;;;;18.52;9.73;;;;;;;16.87;43.29;100585.69;4956152;29;20055;-61
2022/09/25 08:29:35;;;;;;;19.42;10.00;;;;;;;16.78;43.55;100593.19;4955835;28;20047;-62
2022/09/25 08:32:01;;;;;;;18.10;10.18;;;;;;;16.83;43.38;100593.38;4955967;28;20053;-62
2022/09/25 08:34:28;;;;;;;19.83;12.35;;;;;;;16.91;43.21;100595.06;4955128;29;20047;-61
2022/09/25 08:37:07;;;;;;;16.38;10.38;;;;;;;17.03;42.79;100587.19;4955480;29;20102;-63
2022/09/25 08:39:33;;;;;;;13.57;9.50;;;;;;;16.82;43.16;100590.91;4954496;28;20547;-61
2022/09/25 08:42:01;;;;;;;14.88;9.50;;;;;;;17.15;42.50;100585.53;4957228;28;20130;-63
2022/09/25 08:49:00;;;;;;;15.68;9.57;;;;;;;17.60;41.38;100588.47;4956084;28;20065;-62
2022/09/25 08:50:35;;;;;;;15.00;9.02;;;;;;;17.23;42.07;100587.19;4956240;29;20054;-62
2022/09/25 08:53:13;;;;;;;20.40;10.15;;;;;;;17.33;42.15;100590.31;4956272;28;20488;-61
2022/09/25 08:58:30;;;;;;;12.30;8.70;;;;;;;16.95;42.76;100590.91;4953999;28;20078;-62
2022/09/25 09:01:01;;;;;;;14.77;9.23;;;;;;;16.70;43.38;100590.63;4955620;29;20047;-62
2022/09/25 09:03:29;;;;;;;16.37;9.33;;;;;;;16.72;43.26;100595.88;4955129;28;20050;-62
2022/09/25 09:06:10;;;;;;;14.10;9.50;;;;;;;17.11;42.56;100585.09;4955790;28;20047;-62
2022/09/25 09:08:39;;;;;;;12.57;9.30;;;;;;;17.47;42.49;100586.59;4955348;29;20063;-63
2022/09/25 09:11:14;;;;;;;14.25;8.85;;;;;;;17.25;42.68;100587.84;4962949;28;20042;-63
2022/09/25 09:13:53;;;;;;;13.73;9.32;;;;;;;17.11;42.44;100587.81;4974207;28;20410;-62
2022/09/25 09:16:32;;;;;;;13.10;8.93;;;;;;;17.36;42.09;100581.81;4964851;28;20415;-62
2022/09/25 09:19:03;;;;;;;14.70;9.20;;;;;;;17.88;41.32;100576.53;4974674;28;20043;-62
2022/09/25 09:21:36;;;;;;;17.10;8.68;;;;;;;17.80;41.52;100573.00;4973628;28;20054;-62
2022/09/25 09:24:44;;;;;;;13.23;8.70;;;;;;;18.05;40.66;100569.63;4974452;28;20043;-62
2022/09/25 09:27:23;;;;;;;14.07;9.50;;;;;;;16.88;42.85;100574.63;4973711;28;20054;-62
2022/09/25 09:30:07;;;;;;;14.13;8.48;;;;;;;16.42;44.15;100574.47;4974592;28;20058;-62
2022/09/25 09:32:50;;;;;;;14.27;9.38;;;;;;;17.39;42.24;100575.97;4973958;28;20043;-68
2022/09/25 09:35:46;;;;;;;14.68;9.93;;;;;;;17.51;42.29;100578.88;4974107;28;20058;-61
2022/09/25 09:38:22;;;;;;;19.92;9.30;;;;;;;17.93;41.27;100574.03;4973775;28;20079;-62
2022/09/25 09:41:23;;;;;;;15.35;8.43;;;;;;;18.61;40.07;100565.44;4972900;28;20047;-63
2022/09/25 09:44:11;;;;;;;11.02;7.85;;;;;;;19.46;38.69;100560.50;4973248;28;20054;-62
2022/09/25 09:47:05;;;;;;;13.50;9.55;;;;;;;19.19;38.48;100565.31;4973451;28;20042;-62
2022/09/25 09:49:49;;;;;;;13.93;8.48;;;;;;;18.91;39.37;100557.53;4961912;28;20062;-61
2022/09/25 09:52:27;;;;;;;11.18;8.05;;;;;;;19.21;38.89;100555.06;4973048;28;20051;-62
2022/09/25 09:55:31;;;;;;;12.02;8.02;;;;;;;19.95;37.20;100556.03;4973982;28;20047;-63
2022/09/25 09:58:04;;;;;;;17.48;8.75;;;;;;;20.16;36.35;100549.31;4857039;29;20056;-62
2022/09/25 10:00:31;;;;;;;15.63;9.15;;;;;;;20.48;35.86;100560.03;4853263;29;20054;-63
2022/09/25 10:03:19;;;;;;;14.32;8.30;;;;;;;21.29;34.83;100554.03;4857797;29;20056;-63
2022/09/25 10:05:55;;;;;;;10.95;8.07;;;;;;;21.96;33.41;100548.22;4857412;29;20069;-62
2022/09/25 10:08:21;;;;;;;11.13;7.80;;;;;;;22.34;32.93;100544.09;4858023;29;20512;-62
2022/09/25 10:10:57;;;;;;;13.00;9.35;;;;;;;21.88;33.56;100539.59;4851810;29;20414;-61
2022/09/25 10:13:31;;;;;;;12.90;7.57;;;;;;;20.54;35.53;100537.34;4838995;29;20084;-61
2022/09/25 10:16:02;;;;;;;16.67;8.07;;;;;;;21.49;34.07;100536.47;4838976;29;20046;-62
2022/09/25 10:18:41;;;;;;;13.02;8.15;;;;;;;22.06;33.27;100533.97;4839346;29;20062;-62
2022/09/25 10:21:15;;;;;;;16.05;7.78;;;;;;;22.66;32.88;100540.91;4839486;29;20057;-62
2022/09/25 10:23:52;;;;;;;13.23;7.55;;;;;;;23.09;32.28;100536.72;4839023;29;20054;-62
2022/09/25 10:26:36;;;;;;;13.23;7.13;;;;;;;23.58;31.30;100537.84;4838735;29;20054;-61
2022/09/25 10:29:20;;;;;;;15.60;6.68;;;;;;;24.03;30.89;100536.03;4896144;29;20035;-62
2022/09/25 10:31:55;;;;;;;10.10;6.78;;;;;;;23.42;31.34;100544.16;4935014;29;20043;-63
2022/09/25 10:34:23;;;;;;;11.50;7.97;;;;;;;23.41;31.08;100537.84;4934662;29;20051;-62
2022/09/25 10:36:51;;;;;;;12.23;6.90;;;;;;;23.38;31.23;100534.78;4934671;29;20043;-61
2022/09/25 10:39:32;;;;;;;9.75;6.47;;;;;;;22.57;32.29;100535.03;4934364;29;20051;-62
2022/09/25 10:43:00;;;;;;;14.05;6.97;;;;;;;23.21;31.54;100535.63;4934491;29;20061;-62
2022/09/25 10:45:30;;;;;;;9.32;6.63;;;;;;;21.87;33.65;100529.72;4857248;29;20057;-61
2022/09/25 10:50:43;;;;;;;12.20;8.02;;;;;;;21.92;33.52;100529.84;4856593;29;20053;-62
2022/09/25 10:53:28;;;;;;;10.80;7.20;;;;;;;21.18;34.63;100527.56;4855802;29;20060;-62
2022/09/25 10:56:07;;;;;;;11.90;7.05;;;;;;;21.74;34.17;100523.44;4856805;29;20053;-62
2022/09/25 10:58:49;;;;;;;9.43;6.93;;;;;;;21.75;34.00;100522.34;4857195;29;20057;-62
2022/09/25 11:01:16;;;;;;;14.57;7.43;;;;;;;20.85;34.98;100526.16;4857023;29;20061;-62
2022/09/25 11:03:46;;;;;;;9.48;6.80;;;;;;;21.34;34.49;100526.88;4856720;29;20052;-62
2022/09/25 11:06:19;;;;;;;11.93;7.20;;;;;;;21.59;33.88;100523.06;4855245;29;20475;-62
2022/09/25 11:08:54;;;;;;;10.25;7.20;;;;;;;21.76;33.65;100521.28;4857110;29;20220;-62
2022/09/25 11:11:25;;;;;;;10.95;7.75;;;;;;;21.18;34.53;100524.00;4856371;29;20049;-64
2022/09/25 11:13:58;;;;;;;11.60;7.78;;;;;;;20.62;35.66;100532.38;4848563;29;20059;-61
2022/09/25 11:16:42;;;;;;;11.73;7.10;;;;;;;20.91;35.42;100533.44;4857099;29;20121;-62
2022/09/25 11:19:33;;;;;;;13.00;6.88;;;;;;;20.42;35.80;100532.66;4906545;28;20046;-63
2022/09/25 11:22:25;;;;;;;8.93;6.88;;;;;;;20.97;34.15;100528.09;4960248;28;20050;-61
2022/09/25 11:25:03;;;;;;;13.27;6.82;;;;;;;21.26;34.01;100526.41;4972050;28;20045;-62
2022/09/25 11:27:30;;;;;;;9.02;6.60;;;;;;;21.18;34.30;100516.66;4971933;28;20069;-61
2022/09/25 11:30:11;;;;;;;11.07;7.53;;;;;;;21.12;34.33;100512.16;4971272;28;20145;-62
2022/09/25 11:33:08;;;;;;;9.82;7.10;;;;;;;20.75;35.06;100520.44;4972713;28;20039;-63
2022/09/25 11:35:47;;;;;;;11.57;6.45;;;;;;;20.84;35.38;100513.63;4972631;28;20050;-63
2022/09/25 11:41:48;;;;;;;13.45;6.95;;;;;;;21.12;35.17;100495.78;4971867;28;20046;-62
2022/09/25 11:44:43;;;;;;;10.02;5.95;;;;;;;21.41;34.65;100491.28;4972058;28;20047;-64
2022/09/25 11:47:28;;;;;;;9.23;5.75;;;;;;;22.30;32.77;100493.75;4971664;28;20047;-62
2022/09/25 11:49:58;;;;;;;9.23;6.60;;;;;;;22.98;31.57;100500.16;4972476;28;20058;-61
2022/09/25 11:52:38;;;;;;;7.68;5.68;;;;;;;23.62;30.38;100500.66;4971896;28;20106;-62
2022/09/25 11:55:53;;;;;;;7.60;5.68;;;;;;;24.29;29.66;100499.59;4971980;28;20407;-63
2022/09/25 11:58:25;;;;;;;8.77;6.47;;;;;;;26.32;26.60;100490.41;4958671;28;20054;-63
2022/09/25 12:00:58;;;;;;;7.78;5.35;;;;;;;27.39;25.25;100484.16;4971557;28;20042;-63
2022/09/25 12:03:28;;;;;;;8.40;5.22;;;;;;;27.65;24.75;100471.13;4970993;28;20046;-63
2022/09/25 12:06:06;;;;;;;8.30;5.65;;;;;;;28.12;23.28;100473.44;4972061;28;20498;-62
2022/09/25 12:08:51;;;;;;;6.97;5.35;;;;;;;28.14;23.19;100470.38;4971036;28;20050;-63
2022/09/25 12:11:45;;;;;;;7.13;5.22;;;;;;;26.53;25.28;100466.50;4962821;28;20057;-63
2022/09/25 12:14:38;;;;;;;6.90;5.22;;;;;;;26.20;26.35;100457.63;4952901;28;20519;-63
2022/09/25 12:17:08;;;;;;;8.07;5.22;;;;;;;25.25;27.42;100460.44;4952318;28;20051;-63
2022/09/25 12:19:46;;;;;;;8.18;4.93;;;;;;;23.97;28.20;100470.19;4953266;29;20511;-63
2022/09/25 12:22:26;;;;;;;6.43;4.93;;;;;;;24.28;28.17;100464.22;4952858;28;20518;-70
2022/09/25 12:25:06;;;;;;;7.80;5.25;;;;;;;23.30;29.49;100450.38;4952241;29;20054;-70
2022/09/25 12:27:53;;;;;;;8.30;5.05;;;;;;;24.49;28.26;100451.56;4952515;28;20051;-70
2022/09/25 12:30:22;;;;;;;6.28;4.55;;;;;;;24.83;27.81;100450.25;4951157;28;20055;-71
2022/09/25 12:33:13;;;;;;;9.35;4.80;;;;;;;23.99;28.39;100448.00;4951383;28;20126;-69
2022/09/25 12:35:47;;;;;;;8.45;5.07;;;;;;;22.43;30.78;100457.91;4951883;28;20047;-68
2022/09/25 12:38:29;;;;;;;7.30;5.38;;;;;;;22.63;31.02;100453.91;4951598;28;20058;-69
2022/09/25 12:41:18;;;;;;;8.65;5.45;;;;;;;23.94;28.83;100453.41;4954052;29;20039;-70
2022/09/25 12:44:01;;;;;;;7.53;5.40;;;;;;;25.22;27.61;100451.91;4952380;28;20047;-69
2022/09/25 12:46:36;;;;;;;7.40;5.78;;;;;;;24.99;27.37;100445.72;4954698;28;20146;-70
2022/09/25 12:49:41;;;;;;;10.48;5.18;;;;;;;23.72;29.12;100443.28;4954493;28;20460;-70
2022/09/25 12:52:16;;;;;;;8.13;5.28;;;;;;;23.29;30.57;100433.09;4912129;29;20051;-70
2022/09/25 12:55:12;;;;;;;7.25;5.82;;;;;;;21.85;33.06;100437.94;4954244;29;20043;-69
2022/09/25 12:57:48;;;;;;;8.93;5.03;;;;;;;21.35;33.62;100438.47;4953951;29;20047;-69
2022/09/25 13:00:20;;;;;;;6.93;5.57;;;;;;;21.70;33.13;100434.88;4953794;29;20051;-68
2022/09/25 13:02:54;;;;;;;7.15;5.55;;;;;;;21.02;34.30;100433.59;4954598;29;20047;-68
2022/09/25 13:05:36;;;;;;;8.57;5.32;;;;;;;20.88;34.43;100432.19;4954967;29;20054;-69
2022/09/25 13:08:22;;;;;;;8.07;5.43;;;;;;;21.16;33.95;100428.78;4954681;28;20050;-69
2022/09/25 13:10:56;;;;;;;7.38;4.90;;;;;;;21.34;34.07;100425.09;4960195;28;20046;-69
2022/09/25 13:13:26;;;;;;;9.63;6.45;;;;;;;21.33;33.48;100424.25;4974335;28;20057;-70
2022/09/25 13:15:56;;;;;;;10.43;5.60;;;;;;;21.19;34.02;100425.56;4974135;28;20422;-70
2022/09/25 13:18:26;;;;;;;13.15;8.77;;;;;;;21.24;34.35;100433.03;4973831;28;20057;-70
2022/09/25 13:20:55;;;;;;;10.40;5.47;;;;;;;21.18;34.30;100423.06;4973964;28;20131;-68
2022/09/25 13:23:28;;;;;;;10.45;5.53;;;;;;;20.90;34.90;100424.56;4973950;28;20054;-69
2022/09/25 13:26:00;;;;;;;9.93;5.50;;;;;;;21.10;34.94;100419.59;4974036;28;20050;-69
2022/09/25 13:28:35;;;;;;;11.05;5.22;;;;;;;20.93;35.04;100426.84;4974185;28;20562;-69
2022/09/25 13:31:05;;;;;;;9.98;5.80;;;;;;;20.98;35.12;100432.41;4974045;28;20059;-69
2022/09/25 13:33:48;;;;;;;6.05;5.05;;;;;;;20.94;35.21;100425.78;4974058;28;20105;-69
2022/09/25 13:36:22;;;;;;;8.23;5.18;;;;;;;21.24;34.54;100428.41;4974279;28;20047;-68
2022/09/25 13:41:49;;;;;;;6.80;5.00;;;;;;;21.18;34.26;100414.88;4954794;28;20047;-62
2022/09/25 13:44:41;;;;;;;7.63;4.90;;;;;;;21.01;34.52;100409.28;4955377;28;20055;-61
2022/09/25 13:47:28;;;;;;;13.45;5.70;;;;;;;20.33;35.41;100410.59;4954914;28;20415;-63
2022/09/25 13:50:10;;;;;;;7.22;4.93;;;;;;;20.57;35.12;100409.59;4954897;28;20043;-62
2022/09/25 13:52:37;;;;;;;8.43;5.00;;;;;;;20.62;34.65;100406.16;4955470;28;20043;-63
2022/09/25 13:55:12;;;;;;;8.77;5.07;;;;;;;20.59;34.98;100402.03;4954991;28;20047;-63
2022/09/25 13:57:57;;;;;;;7.70;5.05;;;;;;;20.95;34.23;100394.72;4954588;29;20047;-64
2022/09/25 14:00:25;;;;;;;9.82;5.43;;;;;;;20.98;34.66;100396.16;4954689;29;20098;-61
2022/09/25 14:03:00;;;;;;;12.98;6.65;;;;;;;20.55;36.07;100389.09;4953834;28;20054;-63
2022/09/25 14:05:34;;;;;;;10.63;5.32;;;;;;;20.46;36.29;100385.91;4954483;28;20047;-62
2022/09/25 14:08:11;;;;;;;10.00;5.38;;;;;;;20.74;35.84;100398.84;4954310;28;20130;-61
2022/09/25 14:10:50;;;;;;;12.00;5.35;;;;;;;20.94;35.46;100389.47;4958896;28;20039;-62
2022/09/25 14:13:24;;;;;;;9.13;5.72;;;;;;;20.80;35.75;100392.47;4973651;28;20051;-62
2022/09/25 14:15:55;;;;;;;7.95;5.28;;;;;;;20.80;35.83;100386.16;4973759;28;20421;-61
2022/09/25 14:18:26;;;;;;;13.27;5.93;;;;;;;20.61;36.63;100393.63;4972861;28;20047;-63
2022/09/25 14:20:58;;;;;;;8.68;5.70;;;;;;;20.26;37.16;100386.16;4956217;28;20069;-63
2022/09/25 14:23:28;;;;;;;10.48;5.97;;;;;;;20.55;36.58;100389.09;4973527;28;20054;-61
2022/09/25 14:25:57;;;;;;;8.30;6.40;;;;;;;20.11;37.69;100380.34;4972443;28;20046;-63
2022/09/25 14:28:29;;;;;;;17.45;8.32;;;;;;;20.19;38.12;100380.81;4972688;28;20050;-62
2022/09/25 14:31:14;;;;;;;13.13;6.95;;;;;;;19.98;38.46;100377.78;4972740;28;20051;-62
2022/09/25 14:34:11;;;;;;;10.50;6.50;;;;;;;19.94;38.31;100378.25;4973077;28;20562;-62
2022/09/25 14:37:00;;;;;;;11.35;7.30;;;;;;;19.66;38.89;100376.06;4972617;28;20046;-61
2022/09/25 14:39:35;;;;;;;9.55;6.45;;;;;;;19.87;38.65;100372.06;4972905;28;20070;-62
2022/09/25 14:42:07;;;;;;;10.32;6.75;;;;;;;19.78;39.17;100368.00;4973667;28;20058;-62
2022/09/25 14:44:34;;;;;;;8.18;6.30;;;;;;;19.72;39.33;100364.28;4971522;28;20054;-62
2022/09/25 14:47:02;;;;;;;9.60;6.47;;;;;;;19.34;40.26;100364.50;4972922;28;20490;-62
2022/09/25 14:49:36;;;;;;;10.52;6.45;;;;;;;19.57;39.72;100365.72;4973301;28;20050;-61
2022/09/25 14:52:16;;;;;;;15.55;6.70;;;;;;;19.45;39.79;100369.22;4972741;28;20050;-63
2022/09/25 14:54:45;;;;;;;13.27;6.05;;;;;;;19.32;39.94;100363.09;4971855;28;20042;-63
2022/09/25 14:57:16;;;;;;;8.48;5.85;;;;;;;19.45;39.87;100369.22;4973140;28;20109;-61
2022/09/25 14:59:54;;;;;;;8.48;6.40;;;;;;;19.29;39.55;100367.09;4972374;28;20097;-63
2022/09/25 15:02:32;;;;;;;10.65;6.47;;;;;;;19.40;39.34;100371.78;4972020;28;20105;-71
2022/09/25 15:05:28;;;;;;;11.70;6.45;;;;;;;19.46;39.34;100360.00;4964297;28;20525;-71
2022/09/25 15:07:58;;;;;;;11.10;7.18;;;;;;;19.26;39.71;100367.56;4953546;28;20411;-71
2022/09/25 15:10:37;;;;;;;10.90;6.25;;;;;;;19.30;39.54;100370.66;4953926;28;20582;-70
2022/09/25 15:13:04;;;;;;;9.80;6.63;;;;;;;19.18;40.10;100365.13;4972382;28;25539;-72